Time;durP1;ratioP1;P1;durP2;ratioP2;P2;SDS_P1;SDS_P2;PMS_P1;PMS_P2;Temp;Humidity;BMP_temperature;BMP_pressure;BME280_temperature;BME280_humidity;BME280_pressure;Samples;Min_cycle;Max_cycle;Signal;HPM_P1;HPM_P2
2022/03/10 00:02:06;;;;;;;;;45.50;39.00;;;;;10.19;55.09;101820.72;5031708;28;49890;-67
2022/03/10 00:04:32;;;;;;;;;54.75;45.00;;;;;9.54;55.73;101721.97;5031900;28;49835;-67
2022/03/10 00:06:58;;;;;;;;;49.00;39.75;;;;;10.08;55.66;101820.31;5031258;28;49714;-67
2022/03/10 00:09:23;;;;;;;;;47.50;38.75;;;;;9.74;56.48;101776.97;5031784;28;49827;-67
2022/03/10 00:11:49;;;;;;;;;53.75;45.50;;;;;9.88;56.74;101800.25;5031522;28;49770;-67
2022/03/10 00:14:14;;;;;;;;;51.75;39.50;;;;;9.86;56.22;101809.81;5032226;28;49955;-66
2022/03/10 00:16:40;;;;;;;;;52.75;43.00;;;;;9.79;56.40;101816.53;5031770;28;49778;-66
2022/03/10 00:19:05;;;;;;;;;50.50;43.75;;;;;9.85;56.21;101824.66;5022628;28;49847;-67
2022/03/10 00:21:31;;;;;;;;;50.50;43.25;;;;;9.41;56.12;101754.66;5031828;28;49742;-66
2022/03/10 00:23:57;;;;;;;;;49.25;39.25;;;;;9.50;56.65;101772.50;5031293;28;49857;-67
2022/03/10 00:26:22;;;;;;;;;56.00;44.25;;;;;9.57;57.05;101795.50;5030818;28;50904;-67
2022/03/10 00:28:48;;;;;;;;;56.50;45.25;;;;;9.66;57.05;101814.25;5031004;28;49700;-66
2022/03/10 00:31:13;;;;;;;;;56.50;45.50;;;;;7.58;56.41;101504.25;5031673;28;49616;-66
2022/03/10 00:33:38;;;;;;;;;57.50;45.50;;;;;9.28;56.84;101768.09;5031783;28;49629;-67
2022/03/10 00:36:06;;;;;;;;;53.25;42.25;;;;;9.57;57.54;101826.97;5031014;28;49784;-68
2022/03/10 00:38:31;;;;;;;;;54.00;43.25;;;;;9.54;57.47;101826.81;5031195;28;49567;-67
2022/03/10 00:40:58;;;;;;;;;56.50;46.00;;;;;7.59;56.80;101528.66;5031003;28;49732;-66
2022/03/10 00:43:23;;;;;;;;;52.75;43.50;;;;;9.37;56.95;101813.03;5031562;28;49977;-67
2022/03/10 00:45:49;;;;;;;;;53.25;43.50;;;;;9.08;57.31;101765.53;5030523;28;50341;-67
2022/03/10 00:48:14;;;;;;;;;50.75;43.25;;;;;9.30;57.01;101813.59;5031017;28;49666;-66
2022/03/10 00:50:39;;;;;;;;;51.00;41.25;;;;;9.18;57.51;101791.28;5031113;28;49883;-67
2022/03/10 00:53:05;;;;;;;;;51.75;42.50;;;;;9.05;56.97;101773.22;5030739;28;49612;-66
2022/03/10 00:55:30;;;;;;;;;45.50;40.00;;;;;9.34;58.21;101826.88;5030737;28;50378;-66
2022/03/10 00:57:56;;;;;;;;;46.25;38.50;;;;;8.93;57.74;101762.22;5034242;28;49767;-66
2022/03/10 01:00:24;;;;;;;;;27.25;26.25;;;;;9.30;57.19;101829.31;5035227;28;49870;-66
2022/03/10 01:02:49;;;;;;;;;54.75;42.50;;;;;9.06;57.91;101793.34;5030499;28;49953;-67
2022/03/10 01:05:15;;;;;;;;;54.75;45.00;;;;;9.18;58.56;101835.81;5029543;28;50579;-66
2022/03/10 01:07:40;;;;;;;;;48.50;40.00;;;;;9.14;57.62;101831.25;5030755;28;49823;-66
2022/03/10 01:10:06;;;;;;;;;47.50;39.50;;;;;9.07;58.42;101831.84;5030761;28;50078;-66
2022/03/10 01:12:32;;;;;;;;;48.25;41.50;;;;;9.01;58.46;101830.66;5031201;28;49690;-63
2022/03/10 01:14:58;;;;;;;;;55.00;43.25;;;;;8.85;58.26;101809.03;5030601;28;49974;-66
2022/03/10 01:17:23;;;;;;;;;40.25;34.00;;;;;8.96;58.40;101837.41;5025619;28;49758;-65
2022/03/10 01:19:49;;;;;;;;;48.50;42.00;;;;;8.81;58.75;101811.47;5030561;28;49760;-66
2022/03/10 01:22:14;;;;;;;;;55.75;45.75;;;;;8.43;58.42;101754.78;5031012;28;49739;-66
2022/03/10 01:24:41;;;;;;;;;49.25;41.50;;;;;8.92;58.61;101840.72;5029315;28;50495;-66
2022/03/10 01:27:07;;;;;;;;;47.75;43.25;;;;;8.88;58.51;101827.50;5030327;28;49897;-66
2022/03/10 01:29:32;;;;;;;;;55.50;46.00;;;;;8.87;58.84;101836.16;5030787;28;49973;-66
2022/03/10 01:31:57;;;;;;;;;55.50;42.50;;;;;8.86;58.43;101837.00;5030684;28;49739;-66
2022/03/10 01:34:23;;;;;;;;;49.00;42.25;;;;;8.61;58.48;101792.25;5030641;28;50246;-65
2022/03/10 01:36:48;;;;;;;;;38.50;33.50;;;;;8.80;58.79;101820.13;5030210;28;49843;-66
2022/03/10 01:39:13;;;;;;;;;46.50;40.00;;;;;8.83;58.40;101828.13;5030319;28;49918;-65
2022/03/10 01:41:39;;;;;;;;;54.75;41.25;;;;;8.69;58.91;101821.38;5030653;28;49627;-66
2022/03/10 01:44:09;;;;;;;;;54.25;42.00;;;;;8.75;58.95;101830.38;5029941;28;49817;-66
2022/03/10 01:46:35;;;;;;;;;55.25;43.25;;;;;8.51;58.66;101804.00;5030540;28;49640;-66
2022/03/10 01:49:03;;;;;;;;;46.75;39.75;;;;;8.68;58.09;101827.41;5029478;28;50022;-65
2022/03/10 01:51:28;;;;;;;;;54.75;43.00;;;;;8.65;58.83;101811.59;5030671;28;49771;-65
2022/03/10 01:53:54;;;;;;;;;52.25;41.50;;;;;8.71;58.72;101815.38;5029404;28;49658;-65
2022/03/10 01:56:21;;;;;;;;;53.25;41.75;;;;;8.71;57.89;101823.22;5030271;28;50086;-66
2022/03/10 01:58:49;;;;;;;;;47.25;35.25;;;;;8.48;58.63;101782.03;5030108;28;49754;-66
2022/03/10 02:01:18;;;;;;;;;46.50;37.00;;;;;8.65;57.91;101822.94;5030085;28;49645;-66
2022/03/10 02:03:44;;;;;;;;;50.00;40.75;;;;;8.67;58.64;101817.78;5029958;28;50815;-65
2022/03/10 02:06:10;;;;;;;;;48.00;40.00;;;;;8.66;58.29;101816.88;5029959;28;50320;-66
2022/03/10 02:11:21;;;;;;;;;49.50;41.50;;;;;8.44;58.38;101787.97;5030072;28;49844;-66
2022/03/10 02:13:46;;;;;;;;;57.25;43.75;;;;;8.50;57.87;101814.41;5029573;28;49814;-66
2022/03/10 02:18:57;;;;;;;;;45.25;38.50;;;;;8.29;58.51;101782.88;5029748;28;49748;-65
2022/03/10 02:21:22;;;;;;;;;39.50;37.50;;;;;8.56;58.51;101820.81;5030313;28;51135;-66
2022/03/10 02:23:48;;;;;;;;;38.75;34.50;;;;;8.38;57.84;101787.66;5011226;28;51164;-66
2022/03/10 02:26:15;;;;;;;;;44.25;39.00;;;;;8.22;57.96;101763.41;5029791;28;49888;-66
2022/03/10 02:28:41;;;;;;;;;46.75;40.75;;;;;8.46;57.65;101810.75;5028396;28;49881;-66
2022/03/10 02:31:07;;;;;;;;;51.50;40.75;;;;;8.14;57.82;101759.53;5028122;28;50032;-66
2022/03/10 02:33:32;;;;;;;;;46.00;38.00;;;;;8.32;57.64;101778.69;5027899;28;51552;-66
2022/03/10 02:35:58;;;;;;;;;41.25;35.50;;;;;8.50;57.80;101812.69;5027892;28;49942;-65
2022/03/10 02:38:24;;;;;;;;;43.50;38.50;;;;;8.58;57.23;101819.16;5028319;28;49978;-65
2022/03/10 02:40:50;;;;;;;;;46.00;38.50;;;;;8.59;57.07;101831.44;5028190;28;49597;-65
2022/03/10 02:43:16;;;;;;;;;40.75;37.00;;;;;8.54;56.79;101816.34;5027938;28;49833;-65
2022/03/10 02:45:42;;;;;;;;;50.75;40.50;;;;;8.50;56.30;101810.06;5010104;28;49750;-65
2022/03/10 02:48:07;;;;;;;;;46.75;38.25;;;;;8.10;57.18;101735.75;5027731;28;49865;-65
2022/03/10 02:50:33;;;;;;;;;40.25;33.25;;;;;8.60;56.68;101825.38;5028201;28;49706;-66
2022/03/10 02:52:58;;;;;;;;;44.25;37.75;;;;;8.62;56.90;101828.06;5027481;28;50400;-65
2022/03/10 02:55:24;;;;;;;;;42.00;35.00;;;;;8.64;56.21;101818.53;5028315;28;49978;-65
2022/03/10 02:57:49;;;;;;;;;44.50;38.50;;;;;8.65;56.56;101825.56;5027774;28;49722;-66
2022/03/10 03:00:16;;;;;;;;;34.00;31.00;;;;;8.41;56.40;101780.88;5030139;28;49946;-65
2022/03/10 03:02:42;;;;;;;;;38.75;34.00;;;;;8.50;56.96;101801.34;5032253;28;50276;-66
2022/03/10 03:05:08;;;;;;;;;35.00;30.75;;;;;8.48;56.78;101797.72;5013749;28;49745;-66
2022/03/10 03:07:34;;;;;;;;;33.50;31.50;;;;;8.55;56.16;101813.78;5031763;28;49801;-65
2022/03/10 03:10:00;;;;;;;;;43.75;36.75;;;;;8.58;56.50;101826.09;5031759;28;50228;-66
2022/03/10 03:12:26;;;;;;;;;43.25;37.00;;;;;8.59;56.02;101820.97;5031819;28;50363;-66
2022/03/10 03:14:52;;;;;;;;;38.25;31.75;;;;;8.66;55.64;101826.47;5030828;28;49853;-66
2022/03/10 03:17:18;;;;;;;;;38.50;35.50;;;;;8.27;56.00;101763.59;5032096;28;49770;-66
2022/03/10 03:19:43;;;;;;;;;40.00;35.00;;;;;8.64;56.10;101830.72;5031938;28;50600;-66
2022/03/10 03:22:09;;;;;;;;;35.50;32.25;;;;;8.60;54.83;101820.13;5025575;28;49806;-66
2022/03/10 03:24:34;;;;;;;;;39.00;32.00;;;;;8.65;54.93;101829.91;5031535;28;50048;-66
2022/03/10 03:27:00;;;;;;;;;40.60;37.00;;;;;8.71;55.44;101835.44;4980974;28;1437192;-66
2022/03/10 03:29:25;;;;;;;;;32.25;31.50;;;;;8.66;55.20;101837.81;5032517;28;49730;-66
2022/03/10 03:31:51;;;;;;;;;37.25;30.00;;;;;8.68;54.65;101837.88;5014063;28;51623;-66
2022/03/10 03:34:16;;;;;;;;;39.00;35.25;;;;;8.75;54.30;101848.72;5032434;28;49754;-66
2022/03/10 03:36:43;;;;;;;;;36.50;32.00;;;;;8.74;55.13;101835.56;5032509;28;49924;-66
2022/03/10 03:39:09;;;;;;;;;36.50;36.25;;;;;8.62;54.63;101821.94;5032530;28;49919;-66
2022/03/10 03:41:35;;;;;;;;;37.00;35.50;;;;;8.71;54.57;101841.56;5032178;28;49666;-66
2022/03/10 03:44:01;;;;;;;;;38.00;32.75;;;;;8.52;54.46;101808.41;5031944;28;49963;-65
2022/03/10 03:46:26;;;;;;;;;38.25;34.50;;;;;8.74;54.78;101843.41;5032240;28;49923;-65
2022/03/10 03:48:51;;;;;;;;;37.00;33.25;;;;;8.72;55.07;101847.69;5032248;28;49870;-65
2022/03/10 03:51:17;;;;;;;;;35.75;34.00;;;;;8.60;54.89;101841.06;5013714;28;51905;-66
2022/03/10 03:53:42;;;;;;;;;32.75;29.25;;;;;8.65;54.93;101843.88;5032057;28;49711;-65
2022/03/10 03:56:07;;;;;;;;;39.75;36.75;;;;;8.58;54.43;101833.97;5031980;28;49864;-66
2022/03/10 03:58:33;;;;;;;;;34.75;32.75;;;;;8.63;54.60;101850.78;5032275;28;49580;-66
2022/03/10 04:00:58;;;;;;;;;37.50;30.00;;;;;8.45;55.16;101827.28;5031505;28;50216;-65
2022/03/10 04:03:24;;;;;;;;;32.25;32.00;;;;;8.57;54.49;101856.63;5031966;28;49990;-65
2022/03/10 04:05:49;;;;;;;;;23.50;23.00;;;;;8.58;55.20;101852.28;5031694;28;50424;-65
2022/03/10 04:08:15;;;;;;;;;41.00;34.75;;;;;8.56;55.19;101852.22;5032036;28;50221;-65
2022/03/10 04:10:40;;;;;;;;;39.25;33.00;;;;;8.48;55.05;101843.09;5031364;28;50696;-66
2022/03/10 04:13:06;;;;;;;;;34.75;33.00;;;;;8.53;54.45;101854.69;5031602;28;49883;-65
2022/03/10 04:15:33;;;;;;;;;44.75;34.00;;;;;8.32;54.97;101824.88;5032020;28;49686;-66
2022/03/10 04:17:58;;;;;;;;;31.25;30.75;;;;;8.45;55.54;101849.94;5030403;28;49877;-65
2022/03/10 04:20:24;;;;;;;;;41.75;35.75;;;;;8.49;55.41;101850.16;5031483;28;50628;-66
2022/03/10 04:22:50;;;;;;;;;36.50;34.25;;;;;8.44;54.92;101848.13;5031132;28;49728;-66
2022/03/10 04:25:15;;;;;;;;;40.50;32.50;;;;;8.43;55.89;101854.19;5031823;28;49835;-66
2022/03/10 04:27:40;;;;;;;;;37.00;31.50;;;;;8.24;55.41;101832.38;5031446;28;49727;-66
2022/03/10 04:30:07;;;;;;;;;42.50;35.25;;;;;8.32;55.89;101854.56;5031172;28;51035;-65
2022/03/10 04:32:42;;;;;;;;;30.00;25.50;;;;;8.42;55.24;101871.63;5031392;28;49835;-65
2022/03/10 04:35:10;;;;;;;;;37.00;34.75;;;;;8.33;55.90;101864.19;5031419;28;50015;-66
2022/03/10 04:37:35;;;;;;;;;39.50;36.75;;;;;8.39;56.12;101871.47;5031394;28;49610;-66
2022/03/10 04:40:00;;;;;;;;;38.50;34.75;;;;;8.23;55.79;101850.63;5030796;28;50330;-66
2022/03/10 04:42:27;;;;;;;;;35.75;28.00;;;;;8.21;55.96;101845.31;5031217;28;49939;-65
2022/03/10 04:44:53;;;;;;;;;36.25;34.50;;;;;8.16;55.64;101849.41;5031195;28;49884;-65
2022/03/10 04:47:19;;;;;;;;;44.75;34.50;;;;;8.01;55.74;101825.16;5031585;28;49845;-66
2022/03/10 04:49:44;;;;;;;;;35.75;33.25;;;;;7.69;55.49;101769.59;5012471;28;51842;-66
2022/03/10 04:52:09;;;;;;;;;32.00;30.50;;;;;7.85;55.78;101804.31;5031153;28;50369;-66
2022/03/10 04:54:35;;;;;;;;;39.75;36.75;;;;;8.27;55.78;101870.84;5031185;28;49703;-66
2022/03/10 04:57:00;;;;;;;;;41.25;37.75;;;;;7.99;55.81;101832.00;5031140;28;49688;-65
2022/03/10 04:59:26;;;;;;;;;32.50;28.50;;;;;8.00;55.88;101839.91;5031063;28;50329;-66
2022/03/10 05:01:51;;;;;;;;;36.75;30.75;;;;;8.21;55.89;101873.19;5031045;28;49700;-66
2022/03/10 05:04:17;;;;;;;;;35.00;33.50;;;;;8.07;56.25;101848.06;5031512;28;49946;-65
2022/03/10 05:06:42;;;;;;;;;35.50;30.25;;;;;8.20;55.79;101868.75;5031305;28;49833;-65
2022/03/10 05:09:07;;;;;;;;;38.00;33.25;;;;;8.18;56.27;101867.78;5030291;28;53242;-66
2022/03/10 05:11:32;;;;;;;;;30.25;30.25;;;;;8.16;56.58;101864.22;5030996;28;50027;-65
2022/03/10 05:13:58;;;;;;;;;36.75;31.75;;;;;8.14;56.05;101868.47;5030497;28;49895;-65
2022/03/10 05:16:23;;;;;;;;;34.00;31.00;;;;;7.95;56.81;101838.81;5031084;28;49743;-65
2022/03/10 05:18:48;;;;;;;;;52.25;40.00;;;;;7.92;56.00;101833.47;5030258;28;50240;-65
2022/03/10 05:21:14;;;;;;;;;43.00;37.25;;;;;7.93;56.50;101836.97;5030980;28;50023;-65
2022/03/10 05:23:39;;;;;;;;;41.00;36.75;;;;;7.94;56.71;101850.09;5029869;28;49908;-65
2022/03/10 05:26:04;;;;;;;;;32.75;32.25;;;;;8.04;56.84;101860.19;5030617;28;49891;-65
2022/03/10 05:28:30;;;;;;;;;36.00;32.00;;;;;7.97;56.55;101854.59;5030614;28;49782;-64
2022/03/10 05:30:55;;;;;;;;;40.75;35.00;;;;;8.01;57.41;101861.78;5030606;28;49846;-67
2022/03/10 05:33:21;;;;;;;;;40.25;34.50;;;;;8.00;56.88;101863.47;5030606;28;49923;-64
2022/03/10 05:35:46;;;;;;;;;36.75;36.00;;;;;7.86;56.46;101832.25;5030471;28;49864;-64
2022/03/10 05:38:11;;;;;;;;;38.25;36.50;;;;;8.00;57.14;101859.94;5029799;28;50070;-64
2022/03/10 05:40:37;;;;;;;;;45.25;41.00;;;;;7.96;58.01;101863.25;5030484;28;49786;-64
2022/03/10 05:43:02;;;;;;;;;55.50;42.00;;;;;7.69;57.93;101826.19;5030236;28;49749;-65
2022/03/10 05:45:28;;;;;;;;;55.50;43.25;;;;;7.37;58.31;101788.03;5030679;28;49940;-64
2022/03/10 05:47:56;;;;;;;;;50.75;40.75;;;;;7.61;58.58;101832.75;5029922;28;49886;-65
2022/03/10 05:50:23;;;;;;;;;55.25;44.75;;;;;7.66;58.57;101837.41;5030217;28;49880;-64
2022/03/10 05:52:49;;;;;;;;;52.25;41.25;;;;;7.59;58.72;101831.78;5029853;28;49791;-64
2022/03/10 05:55:16;;;;;;;;;50.50;41.25;;;;;7.25;58.89;101792.63;5030436;28;49623;-65
2022/03/10 05:57:42;;;;;;;;;53.50;43.50;;;;;7.58;59.35;101856.13;5030248;28;49707;-64
2022/03/10 06:00:09;;;;;;;;;59.50;44.25;;;;;7.63;59.13;101871.22;5029961;28;49873;-64
2022/03/10 06:02:34;;;;;;;;;53.50;43.75;;;;;7.56;59.41;101857.78;5029599;28;49827;-64
2022/03/10 06:05:01;;;;;;;;;61.25;47.50;;;;;7.61;59.43;101870.22;5029961;28;49914;-64
2022/03/10 06:07:27;;;;;;;;;59.50;44.00;;;;;7.40;59.18;101840.41;5011717;28;50710;-64
2022/03/10 06:09:54;;;;;;;;;54.00;42.75;;;;;7.63;59.68;101873.84;5029667;28;49876;-65
2022/03/10 06:12:21;;;;;;;;;57.25;44.75;;;;;7.51;59.11;101867.06;5030131;28;49932;-64
2022/03/10 06:14:46;;;;;;;;;51.50;40.50;;;;;7.55;59.44;101862.09;5028751;28;50107;-64
2022/03/10 06:17:12;;;;;;;;;49.25;39.75;;;;;7.61;59.39;101872.84;5029845;28;50405;-65
2022/03/10 06:19:38;;;;;;;;;41.25;37.50;;;;;7.04;58.80;101787.19;5030024;28;49737;-64
2022/03/10 06:22:03;;;;;;;;;47.00;37.50;;;;;7.58;59.10;101874.41;5024404;28;49865;-64
2022/03/10 06:24:28;;;;;;;;;45.50;39.75;;;;;7.31;59.34;101825.16;5030074;28;49785;-63
2022/03/10 06:26:54;;;;;;;;;41.00;34.50;;;;;7.54;59.26;101862.03;5029272;28;51404;-64
2022/03/10 06:29:19;;;;;;;;;50.00;40.25;;;;;7.61;58.84;101879.78;5029673;28;49730;-63
2022/03/10 06:31:44;;;;;;;;;40.50;39.00;;;;;7.53;59.45;101865.44;5029546;28;49921;-64
2022/03/10 06:34:10;;;;;;;;;40.50;37.75;;;;;7.58;59.53;101871.81;5029890;28;50227;-65
2022/03/10 06:36:35;;;;;;;;;56.75;43.50;;;;;7.38;59.21;101836.84;5029554;28;49969;-64
2022/03/10 06:39:01;;;;;;;;;44.25;39.50;;;;;7.05;59.73;101795.13;5029213;28;49978;-65
2022/03/10 06:41:26;;;;;;;;;49.00;40.75;;;;;7.54;59.75;101873.38;5029743;28;49888;-64
2022/03/10 06:43:52;;;;;;;;;49.00;40.25;;;;;7.61;59.91;101887.63;5029587;28;49832;-64
2022/03/10 06:46:17;;;;;;;;;49.75;40.00;;;;;7.39;59.74;101852.56;5029259;28;50548;-65
2022/03/10 06:48:42;;;;;;;;;48.50;41.25;;;;;7.59;59.49;101886.66;5029356;28;49745;-64
2022/03/10 06:51:08;;;;;;;;;54.50;41.25;;;;;7.15;60.08;101809.56;5029413;28;49919;-64
2022/03/10 06:53:33;;;;;;;;;51.50;41.00;;;;;7.58;60.03;101883.16;5029687;28;49835;-64
2022/03/10 06:55:59;;;;;;;;;47.75;41.00;;;;;7.55;60.33;101885.63;5028972;28;49941;-64
2022/03/10 06:58:24;;;;;;;;;47.75;41.25;;;;;7.57;60.31;101888.31;5029502;28;49653;-64
2022/03/10 07:00:50;;;;;;;;;50.00;40.50;;;;;7.40;60.18;101872.66;5029539;28;49867;-65
2022/03/10 07:03:15;;;;;;;;;50.00;41.25;;;;;7.56;60.19;101876.06;5029541;28;49690;-64
2022/03/10 07:05:41;;;;;;;;;41.00;37.50;;;;;7.54;59.60;101878.59;5029215;28;50422;-64
2022/03/10 07:08:07;;;;;;;;;46.00;38.25;;;;;7.58;59.70;101883.16;5028721;28;49548;-64
2022/03/10 07:10:32;;;;;;;;;48.50;36.75;;;;;7.76;59.38;101901.47;5029529;28;49996;-65
2022/03/10 07:12:58;;;;;;;;;39.00;35.00;;;;;7.73;59.75;101883.94;5029307;28;49909;-59
2022/03/10 07:15:23;;;;;;;;;35.00;34.00;;;;;7.90;59.52;101899.53;5029203;28;49736;-59
2022/03/10 07:17:49;;;;;;;;;42.50;35.75;;;;;7.91;59.43;101899.66;5010891;28;49686;-62
2022/03/10 07:20:14;;;;;;;;;45.00;39.50;;;;;7.76;59.54;101870.13;5028923;28;49658;-75
2022/03/10 07:22:40;;;;;;;;;40.75;36.50;;;;;8.04;59.37;101908.97;5026897;28;49803;-83
2022/03/10 07:25:08;;;;;;;;;45.75;39.25;;;;;7.99;58.96;101885.19;5028696;28;49870;-62
2022/03/10 07:27:34;;;;;;;;;42.25;38.00;;;;;7.72;58.22;101834.16;5007733;28;49899;-60
2022/03/10 07:29:59;;;;;;;;;44.25;39.75;;;;;8.01;58.64;101870.50;5008951;28;49961;-60
2022/03/10 07:32:28;;;;;;;;;45.25;38.75;;;;;8.20;58.10;101897.53;5009413;28;49852;-60
2022/03/10 07:34:54;;;;;;;;;37.75;36.50;;;;;8.28;58.24;101906.66;5008620;28;50645;-66
2022/03/10 07:37:19;;;;;;;;;48.75;40.00;;;;;7.98;59.04;101846.81;5008672;28;49694;-60
2022/03/10 07:39:45;;;;;;;;;49.75;43.00;;;;;8.20;58.51;101888.00;5007622;28;49922;-61
2022/03/10 07:42:10;;;;;;;;;42.50;38.00;;;;;8.43;58.46;101914.38;5008566;28;49916;-61
2022/03/10 07:44:36;;;;;;;;;50.00;42.00;;;;;8.41;58.19;101897.72;5009255;28;49713;-60
2022/03/10 07:47:01;;;;;;;;;49.00;40.25;;;;;8.49;58.74;101909.41;5012228;28;49840;-61
2022/03/10 07:49:29;;;;;;;;;42.25;37.25;;;;;8.42;57.71;101889.94;5009908;28;49861;-61
2022/03/10 07:51:54;;;;;;;;;47.50;41.00;;;;;8.52;57.73;101891.28;5008978;28;50166;-62
2022/03/10 07:54:19;;;;;;;;;46.00;40.75;;;;;8.56;58.17;101895.81;5012414;28;50331;-67
2022/03/10 07:56:45;;;;;;;;;42.50;36.00;;;;;8.52;57.83;101881.69;5015663;28;50046;-60
2022/03/10 07:59:10;;;;;;;;;42.75;36.75;;;;;8.61;57.58;101891.69;5012572;28;50332;-62
2022/03/10 08:01:35;;;;;;;;;49.00;38.75;;;;;8.71;57.96;101893.91;5013765;28;49808;-66
2022/03/10 08:04:01;;;;;;;;;40.75;35.75;;;;;8.60;57.53;101876.81;5012427;28;50428;-68
2022/03/10 08:06:27;;;;;;;;;40.00;36.75;;;;;8.89;57.83;101912.19;5012774;28;49865;-62
2022/03/10 08:08:53;;;;;;;;;38.50;35.75;;;;;8.83;56.98;101898.81;5012565;28;49653;-62
2022/03/10 08:11:19;;;;;;;;;43.00;38.25;;;;;8.19;57.61;101775.41;5012470;28;49702;-62
2022/03/10 08:13:44;;;;;;;;;43.00;37.25;;;;;8.98;57.34;101910.00;5014496;28;49808;-60
2022/03/10 08:16:10;;;;;;;;;45.00;38.25;;;;;9.05;57.02;101916.41;5013008;28;49777;-60
2022/03/10 08:18:36;;;;;;;;;37.00;35.25;;;;;8.76;56.85;101857.47;5012390;28;49760;-62
2022/03/10 08:21:01;;;;;;;;;46.00;38.75;;;;;9.13;56.31;101909.78;5014213;28;49797;-61
2022/03/10 08:23:27;;;;;;;;;41.25;36.50;;;;;9.24;57.34;101918.13;5011929;28;49812;-61
2022/03/10 08:25:52;;;;;;;;;45.50;40.00;;;;;9.26;56.32;101896.38;5012418;28;49760;-60
2022/03/10 08:28:18;;;;;;;;;33.00;30.50;;;;;9.21;56.48;101881.31;5029681;28;49653;-60
2022/03/10 08:30:44;;;;;;;;;40.00;35.75;;;;;9.50;56.69;101914.03;5032473;28;49908;-60
2022/03/10 08:33:09;;;;;;;;;43.75;39.50;;;;;9.54;55.90;101901.09;5031816;28;50391;-60
2022/03/10 08:35:34;;;;;;;;;40.50;38.00;;;;;9.57;56.25;101892.50;5032003;28;49799;-61
2022/03/10 08:38:00;;;;;;;;;36.50;34.00;;;;;9.59;55.70;101883.88;5031948;28;49563;-60
2022/03/10 08:40:26;;;;;;;;;42.50;36.00;;;;;9.43;56.36;101847.34;5032494;28;49782;-61
2022/03/10 08:42:51;;;;;;;;;40.50;37.25;;;;;9.64;55.97;101860.44;5031748;28;49827;-60
2022/03/10 08:45:18;;;;;;;;;38.50;36.50;;;;;9.98;56.28;101894.22;5032229;28;49906;-61
2022/03/10 08:47:44;;;;;;;;;45.00;37.75;;;;;9.97;56.22;101885.47;5031294;28;49828;-61
2022/03/10 08:50:11;;;;;;;;;42.00;36.75;;;;;10.09;55.17;101890.31;5031488;28;49769;-60
2022/03/10 08:52:37;;;;;;;;;36.75;33.25;;;;;10.12;55.64;101886.91;5031219;28;50719;-60
2022/03/10 08:55:03;;;;;;;;;42.25;35.75;;;;;10.23;54.87;101888.28;5031741;28;49798;-61
2022/03/10 08:57:28;;;;;;;;;34.50;33.25;;;;;10.32;54.74;101889.53;5030707;28;49796;-60
2022/03/10 08:59:54;;;;;;;;;33.50;31.00;;;;;10.39;55.18;101888.06;5032017;28;49758;-60
2022/03/10 09:02:19;;;;;;;;;31.50;31.50;;;;;10.40;54.91;101879.34;5031481;28;49854;-60
2022/03/10 09:04:44;;;;;;;;;42.50;37.25;;;;;8.89;55.59;101611.06;5031439;28;49784;-61
2022/03/10 09:07:10;;;;;;;;;40.25;36.50;;;;;10.52;53.94;101885.09;5031259;28;49862;-61
2022/03/10 09:09:35;;;;;;;;;37.50;35.50;;;;;10.23;54.32;101823.59;5031170;28;49880;-61
2022/03/10 09:12:01;;;;;;;;;34.75;33.50;;;;;10.66;54.60;101882.97;5031407;28;50732;-61
2022/03/10 09:14:26;;;;;;;;;31.75;28.50;;;;;10.75;54.40;101887.69;5031629;28;49828;-60
2022/03/10 09:16:52;;;;;;;;;39.50;36.25;;;;;10.76;54.08;101885.13;5031644;28;49916;-61
2022/03/10 09:19:18;;;;;;;;;36.75;34.00;;;;;10.87;53.55;101885.53;5031880;28;49805;-61
2022/03/10 09:21:44;;;;;;;;;39.25;32.00;;;;;10.90;53.09;101885.63;5012874;28;49826;-61
2022/03/10 09:24:10;;;;;;;;;35.75;33.25;;;;;10.95;53.95;101884.06;5031007;28;50085;-61
2022/03/10 09:26:37;;;;;;;;;43.25;37.50;;;;;10.88;53.40;101866.28;5030620;28;49804;-61
2022/03/10 09:29:02;;;;;;;;;33.00;32.00;;;;;11.09;52.83;101885.47;5031413;28;49943;-61
2022/03/10 09:31:28;;;;;;;;;30.75;27.25;;;;;10.74;53.50;101818.50;5030972;28;49852;-61
2022/03/10 09:33:53;;;;;;;;;40.75;35.75;;;;;11.08;52.55;101857.41;5035295;28;49924;-62
2022/03/10 09:36:19;;;;;;;;;32.25;31.75;;;;;11.08;52.73;101851.25;5036007;28;50289;-65
2022/03/10 09:38:45;;;;;;;;;31.25;25.50;;;;;11.20;52.24;101871.84;5032609;28;49401;-64
2022/03/10 09:41:11;;;;;;;;;37.25;32.25;;;;;11.35;52.17;101878.53;5041671;28;49597;-64
2022/03/10 09:43:37;;;;;;;;;31.75;26.50;;;;;11.40;52.95;101882.22;5048581;28;49398;-64
2022/03/10 09:46:04;;;;;;;;;33.50;31.75;;;;;11.46;52.42;101871.91;5039106;28;49282;-63
2022/03/10 09:48:30;;;;;;;;;40.75;32.25;;;;;11.51;52.30;101877.34;5043362;28;49718;-63
2022/03/10 09:50:56;;;;;;;;;30.00;28.00;;;;;11.52;51.84;101860.72;5045202;28;49507;-66
2022/03/10 09:53:21;;;;;;;;;32.75;30.75;;;;;11.65;52.49;101868.16;5046171;28;49526;-64
2022/03/10 09:55:46;;;;;;;;;35.50;28.25;;;;;11.57;51.79;101840.72;5040400;28;49534;-62
2022/03/10 09:58:12;;;;;;;;;30.75;26.75;;;;;11.78;52.05;101868.59;5045354;28;49552;-63
2022/03/10 10:00:37;;;;;;;;;34.00;30.50;;;;;11.67;52.07;101841.91;5041883;28;49969;-62
2022/03/10 10:03:03;;;;;;;;;28.75;27.75;;;;;11.87;51.86;101875.09;5038838;28;49808;-64
2022/03/10 10:05:31;;;;;;;;;31.50;24.25;;;;;11.95;51.84;101870.97;5037051;28;49948;-63
2022/03/10 10:08:17;;;;;;;;;39.75;34.25;;;;;11.82;51.82;101833.69;5043142;28;49836;-64
2022/03/10 10:10:47;;;;;;;;;30.50;28.75;;;;;12.08;51.40;101861.75;5042682;28;50270;-62
2022/03/10 10:13:25;;;;;;;;;33.75;30.25;;;;;12.20;51.34;101853.34;5048175;28;49474;-63
2022/03/10 10:16:08;;;;;;;;;31.75;28.50;;;;;12.26;51.29;101858.81;5036966;28;50051;-63
2022/03/10 10:18:35;;;;;;;;;41.50;31.75;;;;;12.31;50.49;101851.94;5041912;28;49769;-63
2022/03/10 10:21:01;;;;;;;;;32.00;27.75;;;;;12.17;51.57;101819.03;5046819;28;50086;-63
2022/03/10 10:23:31;;;;;;;;;31.25;29.25;;;;;12.40;51.04;101836.41;5046139;28;49252;-61
2022/03/10 10:25:59;;;;;;;;;31.50;31.00;;;;;12.53;51.05;101840.28;5047868;28;49592;-63
2022/03/10 10:28:46;;;;;;;;;27.75;24.00;;;;;12.58;50.59;101843.97;5046930;28;49334;-64
2022/03/10 10:31:14;;;;;;;;;24.00;21.75;;;;;12.68;50.86;101842.50;5039719;28;51425;-63
2022/03/10 10:33:42;;;;;;;;;24.50;22.25;;;;;12.73;50.26;101833.88;5047610;28;49310;-62
2022/03/10 10:36:19;;;;;;;;;21.50;21.00;;;;;12.58;50.44;101786.91;5047348;28;49339;-63
2022/03/10 10:38:47;;;;;;;;;25.25;22.50;;;;;12.83;50.49;101820.09;5037433;28;49713;-62
2022/03/10 10:41:26;;;;;;;;;23.25;22.50;;;;;12.95;50.27;101824.84;5046434;28;50262;-61
2022/03/10 10:43:53;;;;;;;;;23.75;19.00;;;;;12.99;50.68;101813.53;5047892;28;49275;-67
2022/03/10 10:46:23;;;;;;;;;22.75;21.50;;;;;13.14;50.58;101828.91;5047648;28;49319;-62
2022/03/10 10:48:49;;;;;;;;;20.25;17.25;;;;;13.11;50.35;101803.31;5046095;28;49500;-63
2022/03/10 10:51:29;;;;;;;;;26.00;22.00;;;;;13.02;49.85;101778.44;5042504;28;50404;-63
2022/03/10 10:53:55;;;;;;;;;22.25;18.25;;;;;12.74;50.32;101714.50;5046617;28;49355;-65
2022/03/10 10:56:22;;;;;;;;;21.50;18.50;;;;;13.27;50.25;101802.03;5047674;28;49370;-64
2022/03/10 10:58:48;;;;;;;;;19.50;19.00;;;;;13.10;50.21;101759.34;5044166;28;49454;-64
2022/03/10 11:01:45;;;;;;;;;18.00;16.75;;;;;13.43;49.44;101803.34;5045885;28;49445;-64
2022/03/10 11:04:12;;;;;;;;;15.75;15.00;;;;;13.46;49.49;101796.38;5024103;28;49531;-62
2022/03/10 11:06:38;;;;;;;;;16.50;16.50;;;;;13.18;49.56;101741.09;5038856;28;49937;-62
2022/03/10 11:09:03;;;;;;;;;14.50;13.50;;;;;13.57;49.06;101796.66;5044382;28;49383;-64
2022/03/10 11:11:29;;;;;;;;;19.25;18.50;;;;;13.56;49.84;101764.94;5028783;28;50363;-62
2022/03/10 11:13:55;;;;;;;;;18.25;16.00;;;;;13.68;49.76;101771.41;5045730;28;49415;-68
2022/03/10 11:16:20;;;;;;;;;20.75;18.75;;;;;13.75;49.76;101786.53;5042526;28;50019;-62